Главная страница
METAR-TAF:

METAR-TAF

Аэропорты :

Киль, Германия

широта: 54-23N, долгота: 010-10E, высота над уровнем моря: 31 м

Текущие метеонаблюдения

Эта сводка был подготовлена 13 часа и 59 минут назад, в 15:50 UTC
Ветер 6 Узел от юго-западный, изменяющийся между южный и западный
Температура 22°C
Влажность 60%
Давление 1012 hPa
Видимость 10 км и более
Рассеянная облачность на высоте 3900 фута
Сплошная облачность на высоте 5100 фута

METAR: EDHK 201550Z 22006KT 190V260 9999 BKN039 OVC051 22/14 Q1012

Время: 07:49 (05:49 UTC)

Прогноз

Эта сводка был подготовлена 15 часа и 49 минут назад, в 14:00 UTC
Прогноз действительный с 20-го 15 UTC до 20-го 18 UTC
Ветер 10 Узел от юго-западный
Видимость 10 км и более
небольшая облачность на высоте 3000 фута
изменения
С 20-го 16 UTC до 20-го 18 UTC
Ветер 5 Узел от южный-юго-западный

TAF: EDHK 201400Z 2015/2018 23010KT 9999 FEW030 BECMG 2016/2018 20005KT

Метеонаблюдения и прогнозы для более 4000 аэропортов (сводки METAR и TAF).

Имеющиеся станции представлены на карте желтыми и красными точками.

Чтобы увидеть название станции, наведите на нее мышь.

Затем щелкните, чтобы увидеть метеонаблюдения и метеопрогнозы.

Управление картой: чтобы увеличить масштаб, щелкните зеленые кнопки с черным крестиком; чтобы уменьшить масштаб, щелкните зеленую кнопку с тире; для просмотра соседних карт щелкайте зеленые стрелки.


METAR-TAF: